Time;durP1;ratioP1;P1;durP2;ratioP2;P2;SDS_P1;SDS_P2;PMS_P1;PMS_P2;Temp;Humidity;BMP_temperature;BMP_pressure;BME280_temperature;BME280_humidity;BME280_pressure;Samples;Min_cycle;Max_cycle;Signal;HPM_P1;HPM_P2
2022/01/10 00:00:47;;;;;;;7.80;2.73;;;7.50;77.00;;;10.53;57.70;100798.75;5073480;28;20193;-64
2022/01/10 00:03:16;;;;;;;9.67;3.40;;;7.50;77.00;;;10.52;57.67;100811.06;5072999;28;20573;-64
2022/01/10 00:05:44;;;;;;;8.57;2.77;;;7.50;77.10;;;10.51;58.22;100811.22;5073821;28;20209;-64
2022/01/10 00:08:14;;;;;;;9.73;2.90;;;7.50;77.00;;;10.51;58.24;100813.84;5073296;28;20272;-64
2022/01/10 00:10:42;;;;;;;7.40;3.17;;;7.50;77.00;;;10.50;57.42;100813.06;5073244;28;20250;-64
2022/01/10 00:13:11;;;;;;;8.33;2.90;;;7.50;77.00;;;10.50;57.42;100823.59;5072908;28;20206;-63
2022/01/10 00:15:41;;;;;;;9.10;3.07;;;7.50;77.00;;;10.50;58.02;100823.59;5073528;28;20200;-64
2022/01/10 00:18:08;;;;;;;10.10;2.70;;;7.50;77.00;;;10.50;57.67;100828.03;5073588;28;20211;-64
2022/01/10 00:20:35;;;;;;;5.47;2.57;;;7.50;77.00;;;10.50;58.16;100831.47;5072441;28;20216;-64
2022/01/10 00:23:03;;;;;;;10.00;3.40;;;7.50;77.00;;;10.52;57.87;100836.56;5071214;28;20331;-63
2022/01/10 00:25:31;;;;;;;8.53;2.73;;;7.50;77.10;;;10.53;58.03;100843.47;5073078;28;20262;-62
2022/01/10 00:27:58;;;;;;;8.57;3.30;;;7.50;77.10;;;10.54;57.83;100840.66;5073137;28;20200;-64
2022/01/10 00:30:26;;;;;;;8.57;2.70;;;7.50;77.30;;;10.55;57.98;100847.59;5073492;28;20193;-64
2022/01/10 00:32:55;;;;;;;11.03;3.20;;;7.50;77.30;;;10.57;57.67;100853.50;5073138;28;20402;-64
2022/01/10 00:35:23;;;;;;;11.23;3.60;;;7.50;77.30;;;10.59;57.54;100854.13;5072992;28;20626;-63
2022/01/10 00:37:51;;;;;;;8.40;3.40;;;7.50;77.20;;;10.59;57.59;100854.13;5072929;28;20693;-64
2022/01/10 00:40:19;;;;;;;8.53;3.13;;;7.50;77.30;;;10.58;57.71;100863.00;5073190;28;20276;-64
2022/01/10 00:42:55;;;;;;;8.27;2.97;;;7.50;77.10;;;10.59;57.60;100864.66;5072707;28;20194;-64
2022/01/10 00:45:26;;;;;;;9.10;3.33;;;7.50;77.10;;;10.57;58.09;100871.91;5072886;28;20273;-64
2022/01/10 00:47:58;;;;;;;6.70;2.77;;;7.50;77.10;;;10.56;58.12;100870.25;5072906;28;20214;-62
2022/01/10 00:50:28;;;;;;;7.03;2.57;;;7.50;77.10;;;10.61;57.40;100877.63;5072954;28;20189;-62
2022/01/10 00:52:55;;;;;;;12.17;3.67;;;7.50;77.10;;;10.66;58.07;100884.03;5072257;28;20296;-63
2022/01/10 00:55:23;;;;;;;8.67;3.43;;;7.50;77.30;;;10.70;57.68;100893.22;5073238;28;20229;-62
2022/01/10 00:57:50;;;;;;;11.53;3.10;;;7.60;77.40;;;10.74;57.23;100894.50;5088609;28;20193;-63
2022/01/10 01:00:18;;;;;;;10.47;3.10;;;7.60;77.40;;;10.76;57.11;100903.09;5072497;28;20200;-64
2022/01/10 01:02:45;;;;;;;10.13;3.77;;;7.60;77.30;;;10.75;57.37;100904.06;5072094;28;20303;-64
2022/01/10 01:05:18;;;;;;;10.30;3.67;;;7.60;77.20;;;10.76;57.83;100908.34;5072874;28;20206;-61
2022/01/10 01:07:45;;;;;;;10.27;3.10;;;7.60;77.00;;;10.76;57.67;100916.25;5072316;28;20239;-64
2022/01/10 01:12:58;;;;;;;8.23;2.73;;;7.70;77.00;;;10.74;57.29;100928.72;5075708;28;20276;-64
2022/01/10 01:15:31;;;;;;;8.90;2.47;;;7.70;76.90;;;10.76;57.12;100929.41;5076464;28;20196;-64
2022/01/10 01:25:56;;;;;;;5.77;3.30;;;7.70;76.90;;;10.76;57.40;100960.19;5076166;28;20220;-63
2022/01/10 01:28:23;;;;;;;8.33;3.40;;;7.70;76.80;;;10.75;57.18;100953.25;5076389;28;20207;-64
2022/01/10 01:30:51;;;;;;;6.70;3.53;;;7.70;76.70;;;10.76;57.39;100960.19;5076469;28;20187;-63
2022/01/10 01:33:19;;;;;;;6.33;2.60;;;7.70;76.70;;;10.74;57.67;100962.97;5076069;28;20223;-64
2022/01/10 01:35:48;;;;;;;11.80;3.40;;;7.70;76.70;;;10.73;57.28;100977.13;5075917;28;20626;-62
2022/01/10 01:38:15;;;;;;;9.13;3.27;;;7.70;76.70;;;10.71;57.56;100973.84;5076035;28;20200;-63
2022/01/10 01:40:51;;;;;;;7.63;2.97;;;7.70;76.80;;;10.72;57.70;100979.94;5075411;28;20360;-64
2022/01/10 01:43:18;;;;;;;7.83;2.97;;;7.60;76.80;;;10.69;57.15;100990.81;5075523;28;20220;-64
2022/01/10 01:45:49;;;;;;;6.23;3.10;;;7.60;77.50;;;10.67;57.51;100998.84;5076197;28;20681;-64
2022/01/10 01:48:17;;;;;;;6.57;3.40;;;7.60;76.70;;;10.67;57.07;101003.31;5075846;28;20641;-63
2022/01/10 01:50:45;;;;;;;11.17;3.70;;;7.60;76.80;;;10.68;57.19;101004.94;5075783;28;20178;-63
2022/01/10 01:53:14;;;;;;;11.37;3.40;;;7.60;76.70;;;10.68;57.51;101012.84;5074310;28;20217;-63
2022/01/10 01:55:41;;;;;;;8.27;3.00;;;7.60;76.90;;;10.72;57.22;101017.59;5075897;28;20189;-63
2022/01/10 01:58:09;;;;;;;9.00;3.23;;;7.60;76.90;;;10.75;57.00;101019.06;5075514;28;20197;-63
2022/01/10 02:00:36;;;;;;;9.60;3.53;;;7.60;76.80;;;10.76;57.39;101032.09;5075282;28;20519;-63
2022/01/10 02:03:04;;;;;;;9.60;3.77;;;7.60;76.80;;;10.76;57.18;101033.88;5074769;28;20205;-63
2022/01/10 02:05:31;;;;;;;7.47;3.20;;;7.60;76.80;;;10.74;57.39;101035.88;5075362;28;20577;-63
2022/01/10 02:07:59;;;;;;;8.40;3.20;;;7.50;76.80;;;10.73;57.27;101035.03;5075578;28;20204;-63
2022/01/10 02:10:28;;;;;;;6.50;3.60;;;7.60;76.90;;;10.74;56.76;101039.31;5075360;28;20673;-63
2022/01/10 02:12:55;;;;;;;11.20;3.70;;;7.60;77.00;;;10.77;57.31;101049.50;5074840;28;20209;-62
2022/01/10 02:15:30;;;;;;;10.43;3.30;;;7.60;77.00;;;10.79;57.42;101049.34;5075110;28;20192;-61
2022/01/10 02:18:00;;;;;;;12.97;3.53;;;7.60;76.80;;;10.79;57.27;101044.88;5075416;28;20219;-62
2022/01/10 02:20:30;;;;;;;10.40;3.37;;;7.60;77.60;;;10.80;56.80;101049.19;5075248;28;20181;-63
2022/01/10 02:22:58;;;;;;;11.83;3.80;;;7.60;76.90;;;10.81;56.95;101056.09;5074976;28;20209;-63
2022/01/10 02:25:26;;;;;;;7.23;3.10;;;7.50;76.90;;;10.82;56.96;101064.78;5075330;28;20217;-63
2022/01/10 02:27:54;;;;;;;11.87;3.93;;;7.60;76.90;;;10.84;56.83;101068.06;5074780;28;20243;-63
2022/01/10 02:30:22;;;;;;;9.60;4.03;;;7.60;76.80;;;10.84;56.58;101073.34;5073234;28;20519;-63
2022/01/10 02:32:49;;;;;;;7.53;3.37;;;7.60;77.70;;;10.84;56.93;101074.16;5090186;28;20192;-64
2022/01/10 02:35:19;;;;;;;14.17;3.80;;;7.60;76.80;;;10.85;57.03;101075.81;5075130;28;20186;-64
2022/01/10 02:37:50;;;;;;;8.67;3.20;;;7.60;76.80;;;10.87;56.69;101086.19;5075279;28;20219;-62
2022/01/10 02:40:20;;;;;;;9.83;3.63;;;7.60;76.80;;;10.87;56.84;101092.28;5074691;28;20246;-64
2022/01/10 02:42:48;;;;;;;10.93;3.83;;;7.60;76.80;;;10.89;57.07;101092.94;5074728;28;20189;-64
2022/01/10 02:45:17;;;;;;;6.67;3.77;;;7.60;76.80;;;10.91;56.63;101099.84;5074308;28;20607;-63
2022/01/10 02:47:45;;;;;;;11.10;3.83;;;7.60;76.80;;;10.93;56.71;101108.41;5074804;28;20199;-63
2022/01/10 02:50:13;;;;;;;11.10;3.57;;;7.60;76.60;;;10.95;57.09;101107.25;5074473;28;20272;-63
2022/01/10 02:52:41;;;;;;;7.87;3.33;;;7.70;76.90;;;10.98;56.60;101108.72;5074053;28;20197;-61
2022/01/10 02:55:12;;;;;;;8.63;3.53;;;7.70;76.90;;;11.02;56.72;101120.56;5074577;28;20182;-63
2022/01/10 02:57:40;;;;;;;7.67;3.43;;;7.70;76.70;;;11.03;56.73;101122.22;5074617;28;20218;-63
2022/01/10 03:00:11;;;;;;;11.90;3.97;;;7.70;76.70;;;11.04;56.83;101123.84;5074507;28;20217;-66
2022/01/10 03:02:41;;;;;;;9.77;3.77;;;7.70;76.60;;;11.05;56.68;101136.88;5073409;28;20207;-64
2022/01/10 03:05:10;;;;;;;14.77;4.37;;;7.80;77.00;;;11.07;56.28;101128.78;5074257;28;20662;-64
2022/01/10 03:07:38;;;;;;;6.53;3.10;;;7.70;76.40;;;11.09;56.94;101139.97;5074201;28;20275;-64
2022/01/10 03:10:07;;;;;;;8.47;3.87;;;7.80;76.40;;;11.09;56.52;101145.22;5074265;28;20264;-64
2022/01/10 03:12:37;;;;;;;8.80;3.63;;;7.80;76.30;;;11.09;56.45;101145.22;5073804;28;20207;-64
2022/01/10 03:15:08;;;;;;;7.50;3.33;;;7.80;76.20;;;11.09;56.18;101155.78;5073904;28;20200;-63
2022/01/10 03:17:36;;;;;;;10.33;3.47;;;7.80;76.20;;;11.12;56.73;101158.06;5073845;28;20185;-64
2022/01/10 03:20:07;;;;;;;10.00;3.60;;;7.80;76.50;;;11.13;56.72;101162.34;5073798;28;20189;-64
2022/01/10 03:22:35;;;;;;;18.13;4.30;;;7.80;76.30;;;11.14;56.36;101170.09;5073549;28;20656;-64
2022/01/10 03:25:04;;;;;;;8.53;3.60;;;7.80;75.90;;;11.13;56.70;101173.72;5074221;28;20193;-64
2022/01/10 03:27:32;;;;;;;11.17;4.00;;;7.80;75.90;;;11.13;56.23;101181.59;5074205;28;20196;-62
2022/01/10 03:30:01;;;;;;;9.07;3.30;;;7.80;76.00;;;11.14;56.16;101174.53;5074352;28;20268;-64
2022/01/10 03:32:29;;;;;;;13.27;5.00;;;7.90;76.10;;;11.13;56.18;101186.88;5073080;28;20189;-64
2022/01/10 03:34:57;;;;;;;14.13;4.30;;;7.80;75.80;;;11.10;56.41;101187.19;5073183;28;20209;-64
2022/01/10 03:37:25;;;;;;;9.87;4.03;;;7.80;75.90;;;11.08;56.40;101191.03;5073943;28;20268;-63
2022/01/10 03:39:52;;;;;;;7.47;3.50;;;7.80;76.00;;;11.06;56.33;101188.53;5073724;28;20291;-64
2022/01/10 03:42:19;;;;;;;13.17;4.03;;;7.80;76.10;;;11.04;56.28;101200.22;5073762;28;20193;-64
2022/01/10 03:44:47;;;;;;;10.50;3.40;;;7.80;76.00;;;11.03;56.50;101198.59;5072281;28;20220;-64
2022/01/10 03:47:18;;;;;;;7.37;4.10;;;7.80;76.00;;;11.00;56.32;101193.66;5073299;28;20235;-64
2022/01/10 03:49:45;;;;;;;9.83;3.87;;;7.70;76.00;;;10.98;56.04;101206.16;5073486;28;20204;-63
2022/01/10 03:52:12;;;;;;;12.87;4.73;;;7.70;76.20;;;10.97;56.45;101215.88;5072871;28;20204;-64
2022/01/10 03:54:40;;;;;;;11.00;5.03;;;7.70;76.20;;;10.96;56.04;101216.84;5073475;28;20211;-64
2022/01/10 03:57:08;;;;;;;11.50;4.47;;;7.70;76.30;;;10.95;56.75;101219.66;5073297;28;20196;-64
2022/01/10 03:59:35;;;;;;;10.70;4.10;;;7.60;76.40;;;10.94;56.24;101226.72;5073353;28;20630;-64
2022/01/10 04:02:04;;;;;;;12.67;3.93;;;7.70;76.60;;;10.94;56.64;101221.47;5073118;28;20201;-61
2022/01/10 04:04:35;;;;;;;12.60;4.90;;;7.70;76.80;;;10.95;56.74;101236.28;5073134;28;20201;-61
2022/01/10 04:07:03;;;;;;;8.80;4.53;;;7.70;76.80;;;10.95;56.39;101235.47;5073294;28;20213;-65
2022/01/10 04:09:31;;;;;;;10.27;4.20;;;7.70;76.80;;;10.95;56.65;101238.09;5072768;28;20700;-63
2022/01/10 04:11:58;;;;;;;12.90;5.53;;;7.70;76.50;;;10.95;56.54;101243.34;5072828;28;20695;-61
2022/01/10 04:14:26;;;;;;;12.00;4.23;;;7.70;76.40;;;10.96;56.89;101245.81;5072606;28;20251;-63
2022/01/10 04:16:54;;;;;;;14.27;4.70;;;7.70;76.40;;;10.96;56.45;101250.28;5073188;28;20195;-63
2022/01/10 04:19:21;;;;;;;11.17;3.80;;;7.70;76.30;;;10.97;56.77;101257.19;5073366;28;20669;-63
2022/01/10 04:21:50;;;;;;;9.37;3.60;;;7.70;76.40;;;10.96;56.81;101252.91;5073526;28;20193;-64
2022/01/10 04:24:17;;;;;;;13.70;3.97;;;7.70;76.30;;;10.95;56.69;101249.47;5072400;28;20235;-63
2022/01/10 04:26:44;;;;;;;15.70;4.30;;;7.70;76.20;;;10.94;56.65;101262.78;5088547;28;20300;-63
2022/01/10 04:29:11;;;;;;;8.23;3.30;;;7.70;76.10;;;10.91;56.63;101268.38;5072896;28;20189;-64
2022/01/10 04:31:39;;;;;;;11.13;3.77;;;7.70;76.00;;;10.89;56.79;101279.91;5073420;28;20272;-64
2022/01/10 04:34:06;;;;;;;9.50;4.20;;;7.70;76.00;;;10.88;56.17;101275.63;5072729;28;20703;-63
2022/01/10 04:36:34;;;;;;;8.90;4.53;;;7.70;76.00;;;10.88;56.11;101280.91;5073014;28;20242;-64
2022/01/10 04:39:03;;;;;;;8.93;3.80;;;7.60;76.00;;;10.88;56.22;101286.16;5072820;28;20185;-64
2022/01/10 04:41:31;;;;;;;9.97;4.37;;;7.70;76.20;;;10.89;56.74;101294.88;5072604;28;20193;-63
2022/01/10 04:43:58;;;;;;;14.07;5.70;;;7.70;76.20;;;10.89;56.15;101303.59;5074468;28;20293;-64
2022/01/10 04:46:26;;;;;;;13.90;5.93;;;7.70;76.00;;;10.88;56.59;101306.41;5076691;28;20213;-63
2022/01/10 04:48:53;;;;;;;8.77;4.37;;;7.70;75.80;;;10.86;56.16;101314.44;5076855;28;20189;-62
2022/01/10 04:51:21;;;;;;;8.53;3.80;;;7.60;75.80;;;10.85;56.83;101320.72;5076597;28;20299;-63
2022/01/10 04:53:51;;;;;;;10.33;4.63;;;7.60;76.60;;;10.84;56.74;101324.31;5076321;28;20212;-63
2022/01/10 04:56:21;;;;;;;10.60;4.00;;;7.60;75.70;;;10.82;56.22;101328.94;5076553;28;20185;-62
2022/01/10 04:58:51;;;;;;;11.43;4.37;;;7.60;75.80;;;10.79;56.51;101331.88;5076566;28;20217;-58
2022/01/10 05:01:19;;;;;;;14.77;5.40;;;7.60;75.70;;;10.76;56.05;101337.47;5076269;28;20615;-63
2022/01/10 05:03:47;;;;;;;8.97;4.53;;;7.60;75.70;;;10.71;56.01;101342.41;5075658;28;20296;-59
2022/01/10 05:06:14;;;;;;;7.80;4.57;;;7.50;75.70;;;10.68;56.28;101345.34;5076001;28;20212;-63
2022/01/10 05:08:42;;;;;;;13.07;4.20;;;7.50;76.00;;;10.64;56.56;101341.41;5076247;28;20196;-63
2022/01/10 05:11:09;;;;;;;11.43;4.60;;;7.50;75.90;;;10.63;56.66;101354.69;5076317;28;20197;-61
2022/01/10 05:13:38;;;;;;;10.30;4.60;;;7.50;76.00;;;10.62;56.83;101353.06;5075318;28;20213;-63
2022/01/10 05:16:05;;;;;;;9.60;4.70;;;7.50;76.20;;;10.62;56.93;101358.34;5075469;28;20212;-64
2022/01/10 05:18:33;;;;;;;13.37;5.20;;;7.50;76.00;;;10.59;56.16;101364.75;5076253;28;20190;-63
2022/01/10 05:21:00;;;;;;;15.97;5.30;;;7.50;75.80;;;10.57;56.80;101373.78;5075694;28;20268;-63
2022/01/10 05:23:27;;;;;;;9.50;4.23;;;7.40;75.80;;;10.53;56.31;101369.81;5075307;28;20225;-62
2022/01/10 05:25:55;;;;;;;11.90;4.30;;;7.40;75.80;;;10.50;56.65;101378.84;5076239;28;20209;-63
2022/01/10 05:28:22;;;;;;;8.60;4.43;;;7.40;76.00;;;10.50;56.92;101386.75;5075632;28;20211;-64
2022/01/10 05:30:54;;;;;;;11.13;5.40;;;7.40;76.10;;;10.52;56.78;101395.31;5074677;28;20525;-63
2022/01/10 05:33:21;;;;;;;8.77;4.93;;;7.40;76.10;;;10.51;56.69;101398.91;5075619;28;20221;-59
2022/01/10 05:35:48;;;;;;;10.87;4.70;;;7.40;76.10;;;10.51;56.33;101405.97;5075910;28;20196;-63
2022/01/10 05:38:16;;;;;;;9.70;4.67;;;7.40;76.10;;;10.49;56.50;101416.66;5075912;28;20185;-61
2022/01/10 05:40:43;;;;;;;13.80;5.13;;;7.40;76.10;;;10.49;57.21;101421.09;5075129;28;20549;-62
2022/01/10 05:43:11;;;;;;;14.70;4.80;;;7.40;76.00;;;10.49;57.17;101426.38;5074723;28;20292;-63
2022/01/10 05:45:43;;;;;;;10.33;4.40;;;7.40;76.00;;;10.50;56.90;101434.13;5074967;28;20281;-63
2022/01/10 05:48:20;;;;;;;13.07;4.80;;;7.40;76.10;;;10.53;56.66;101443.50;5075325;28;20204;-63
2022/01/10 05:50:49;;;;;;;12.13;4.77;;;7.40;76.10;;;10.55;56.59;101442.38;5075256;28;20557;-62
2022/01/10 05:53:16;;;;;;;9.20;4.10;;;7.40;76.10;;;10.58;57.11;101452.56;5074780;28;20772;-64
2022/01/10 05:55:44;;;;;;;10.57;4.20;;;7.30;76.10;;;10.60;56.64;101465.59;5075364;28;20526;-62
2022/01/10 05:58:12;;;;;;;11.67;4.30;;;7.40;76.10;;;10.61;56.59;101460.16;5090719;28;20208;-64
2022/01/10 06:00:40;;;;;;;13.87;4.70;;;7.40;76.10;;;10.65;56.68;101479.91;5074568;28;20210;-64
2022/01/10 06:03:08;;;;;;;13.80;4.80;;;7.40;76.10;;;10.67;56.80;101483.22;5074354;28;20227;-64
2022/01/10 06:05:40;;;;;;;11.03;4.60;;;7.40;75.90;;;10.68;56.86;101484.88;5075942;28;20182;-63
2022/01/10 06:08:11;;;;;;;11.77;5.10;;;7.50;76.20;;;10.69;56.27;101491.81;5074067;28;20598;-64
2022/01/10 06:10:39;;;;;;;14.00;4.93;;;7.50;75.90;;;10.69;56.37;101494.44;5074842;28;20185;-65
2022/01/10 06:13:07;;;;;;;12.97;5.07;;;7.50;75.80;;;10.71;56.55;101494.28;5074428;28;20255;-64
2022/01/10 06:15:34;;;;;;;10.40;4.77;;;7.50;76.10;;;10.74;56.75;101492.13;5074474;28;20195;-62
2022/01/10 06:18:01;;;;;;;6.63;4.13;;;7.50;75.70;;;10.76;55.98;101498.09;5075143;28;20275;-64
2022/01/10 06:20:29;;;;;;;15.33;5.30;;;7.50;75.60;;;10.75;56.34;101499.06;5074991;28;20614;-63
2022/01/10 06:22:58;;;;;;;10.63;4.20;;;7.50;75.60;;;10.74;56.53;101505.28;5074247;28;20197;-63
2022/01/10 06:25:28;;;;;;;15.53;5.30;;;7.60;75.50;;;10.72;55.86;101512.53;5074726;28;20195;-62
2022/01/10 06:27:57;;;;;;;11.13;4.10;;;7.60;75.20;;;10.70;56.02;101524.19;5074351;28;20673;-64
2022/01/10 06:30:25;;;;;;;8.37;5.00;;;7.60;75.30;;;10.67;56.17;101529.78;5073487;28;20546;-63
2022/01/10 06:32:52;;;;;;;9.73;4.40;;;7.60;75.20;;;10.63;56.62;101534.53;5074126;28;20193;-61
2022/01/10 06:35:19;;;;;;;10.73;5.10;;;7.50;75.20;;;10.60;56.33;101536.66;5074847;28;20231;-63
2022/01/10 06:37:47;;;;;;;9.53;4.70;;;7.50;74.90;;;10.54;56.36;101543.34;5074143;28;20209;-62
2022/01/10 06:40:16;;;;;;;12.17;4.80;;;7.50;75.10;;;10.51;56.25;101546.28;5074124;28;20196;-64
2022/01/10 06:42:44;;;;;;;10.50;5.63;;;7.40;74.80;;;10.50;56.83;101559.63;5073846;28;20215;-63
2022/01/10 06:45:17;;;;;;;11.37;5.40;;;7.40;75.20;;;10.47;56.49;101565.19;5074082;28;20177;-63
2022/01/10 06:47:44;;;;;;;10.80;5.27;;;7.40;75.10;;;10.46;56.31;101568.81;5073988;28;20213;-64
2022/01/10 06:50:12;;;;;;;9.77;5.10;;;7.40;75.20;;;10.44;56.60;101576.84;5074078;28;20240;-64
2022/01/10 06:52:39;;;;;;;11.60;4.93;;;7.40;75.40;;;10.45;56.23;101583.75;5073209;28;20193;-63
2022/01/10 06:55:08;;;;;;;19.97;6.17;;;7.30;75.20;;;10.44;56.51;101594.44;5073818;28;20189;-62
2022/01/10 06:57:36;;;;;;;11.60;5.17;;;7.30;75.30;;;10.41;56.61;101597.38;5074177;28;20637;-64
2022/01/10 07:00:06;;;;;;;8.90;4.60;;;7.30;75.30;;;10.38;56.43;101603.78;5073379;28;20217;-65
2022/01/10 07:02:34;;;;;;;7.83;4.97;;;7.30;75.40;;;10.35;56.88;101609.34;5072608;28;20221;-65
2022/01/10 07:05:03;;;;;;;13.20;5.50;;;7.30;76.20;;;10.35;56.75;101614.59;5076696;28;20207;-65
2022/01/10 07:07:30;;;;;;;10.40;4.93;;;7.30;76.00;;;10.34;56.54;101620.03;5071489;28;20209;-62
2022/01/10 07:09:57;;;;;;;9.87;5.40;;;7.30;76.00;;;10.32;56.36;101625.41;5073449;28;20221;-63
2022/01/10 07:12:25;;;;;;;12.10;5.47;;;7.20;75.50;;;10.30;56.57;101629.16;5073319;28;20194;-64
2022/01/10 07:14:53;;;;;;;11.73;5.63;;;7.20;75.60;;;10.27;56.88;101647.91;5074010;28;20219;-59
2022/01/10 07:17:21;;;;;;;13.37;5.67;;;7.20;75.60;;;10.24;56.75;101658.72;5074293;28;20208;-62
2022/01/10 07:19:48;;;;;;;11.70;4.83;;;7.20;75.60;;;10.19;56.70;101656.53;5082499;28;20205;-64
2022/01/10 07:22:15;;;;;;;14.13;5.17;;;7.10;75.80;;;10.18;57.14;101673.28;5095945;28;20187;-64
2022/01/10 07:24:43;;;;;;;10.00;5.53;;;7.10;76.00;;;10.16;57.35;101670.81;5094616;28;20572;-61
2022/01/10 07:27:10;;;;;;;12.03;5.90;;;7.10;76.30;;;10.16;57.14;101685.78;5092796;28;20208;-66
2022/01/10 07:29:38;;;;;;;10.63;4.83;;;7.10;76.40;;;10.20;56.94;101695.00;5094149;28;20227;-62
2022/01/10 07:32:08;;;;;;;11.60;5.50;;;7.10;76.30;;;10.21;56.80;101699.31;5092382;28;20180;-64
2022/01/10 07:34:36;;;;;;;10.57;6.00;;;7.10;76.00;;;10.24;56.73;101701.66;5087001;28;20248;-64
2022/01/10 07:37:03;;;;;;;14.47;6.03;;;7.10;75.90;;;10.23;56.52;101710.50;5082019;28;20192;-62
2022/01/10 07:39:31;;;;;;;12.87;6.33;;;7.10;75.70;;;10.24;56.72;101716.59;5090513;28;20193;-64
2022/01/10 07:41:59;;;;;;;10.17;5.70;;;7.10;76.00;;;10.22;57.25;101714.13;5076852;28;20203;-65
2022/01/10 07:44:26;;;;;;;12.30;5.50;;;7.10;76.10;;;10.20;56.61;101716.88;5072201;28;20244;-65
2022/01/10 07:46:55;;;;;;;11.13;5.40;;;7.10;75.90;;;10.22;57.30;101735.19;5076595;28;20208;-65
2022/01/10 07:49:23;;;;;;;11.93;6.50;;;7.10;76.10;;;10.25;56.93;101734.88;5084780;28;20692;-64
2022/01/10 07:51:51;;;;;;;10.47;5.20;;;7.10;75.70;;;10.26;56.89;101733.91;5071533;28;20265;-64
2022/01/10 07:54:19;;;;;;;14.33;5.50;;;7.10;75.90;;;10.27;56.58;101738.16;5075880;28;20242;-64
2022/01/10 07:56:47;;;;;;;10.53;6.00;;;7.20;75.80;;;10.26;56.85;101739.16;5077040;28;20273;-64
2022/01/10 07:59:14;;;;;;;11.90;5.83;;;7.10;75.70;;;10.25;56.33;101750.66;5073262;28;20219;-65
2022/01/10 08:01:42;;;;;;;14.40;6.30;;;7.10;75.60;;;10.24;56.99;101754.28;5075247;28;20279;-66
2022/01/10 08:04:09;;;;;;;13.63;5.40;;;7.10;75.50;;;10.23;56.28;101757.03;5071786;28;20272;-64
2022/01/10 08:06:38;;;;;;;9.80;5.80;;;7.10;75.70;;;10.22;56.44;101756.22;5071958;28;20282;-65
2022/01/10 08:09:06;;;;;;;11.83;6.10;;;7.10;75.70;;;10.20;56.61;101768.66;5066169;28;20250;-66
2022/01/10 08:11:33;;;;;;;10.57;5.00;;;7.10;75.60;;;10.16;56.67;101772.56;5068832;28;20249;-65
2022/01/10 08:14:02;;;;;;;12.97;5.47;;;7.10;75.50;;;10.13;56.56;101773.69;5065669;28;20721;-65
2022/01/10 08:16:29;;;;;;;13.37;5.27;;;7.00;75.30;;;10.11;56.49;101774.78;5068802;28;20513;-66
2022/01/10 08:18:57;;;;;;;13.77;8.00;;;7.00;75.30;;;10.07;56.55;101776.88;5058412;28;20193;-63
2022/01/10 08:21:24;;;;;;;9.83;5.53;;;7.00;75.40;;;10.07;56.99;101783.94;5073013;28;20642;-65
2022/01/10 08:23:53;;;;;;;10.87;5.27;;;7.00;75.60;;;10.07;56.71;101787.41;5059944;28;20229;-66
2022/01/10 08:26:21;;;;;;;12.10;5.70;;;7.00;76.00;;;10.13;57.21;101793.91;5065719;28;20208;-63
2022/01/10 08:28:49;;;;;;;17.07;6.47;;;7.00;76.20;;;10.17;56.87;101796.09;5062355;28;20220;-67
2022/01/10 08:31:16;;;;;;;14.77;6.67;;;7.10;76.00;;;10.20;56.55;101793.19;5056954;28;20244;-64
2022/01/10 08:33:46;;;;;;;12.60;5.23;;;7.10;76.60;;;10.24;56.95;101811.31;5063436;28;20227;-63
2022/01/10 08:36:16;;;;;;;13.40;6.50;;;7.10;75.70;;;10.26;56.25;101802.31;5073422;28;20240;-63
2022/01/10 08:38:44;;;;;;;14.53;6.13;;;7.00;75.60;;;10.26;56.44;101810.19;5067487;28;20197;-66
2022/01/10 08:41:14;;;;;;;16.67;6.83;;;7.10;75.60;;;10.26;56.96;101814.63;5075217;28;20204;-64
2022/01/10 08:43:42;;;;;;;10.60;6.27;;;7.10;75.70;;;10.29;56.83;101815.19;5078556;28;20248;-64
2022/01/10 08:46:09;;;;;;;12.13;5.93;;;7.10;75.80;;;10.32;56.90;101828.00;5062232;28;20207;-65
2022/01/10 08:48:49;;;;;;;17.23;7.30;;;7.10;75.50;;;10.34;56.19;101839.22;5053253;28;20302;-63
2022/01/10 08:51:17;;;;;;;15.70;6.53;;;7.20;75.60;;;10.38;56.81;101847.66;5059246;28;24463;-67
2022/01/10 08:53:44;;;;;;;15.20;7.53;;;7.10;75.40;;;10.52;55.97;101842.75;5067351;28;20443;-60
2022/01/10 08:56:13;;;;;;;12.93;7.75;;;7.20;75.60;;;11.00;55.12;101846.88;5070496;28;20518;-61
2022/01/10 08:58:41;;;;;;;13.50;7.10;;;7.30;76.50;;;10.86;55.59;101854.31;5071463;28;20276;-62
2022/01/10 09:01:09;;;;;;;15.40;6.33;;;7.40;76.00;;;10.84;55.98;101858.91;5070174;28;20209;-62
2022/01/10 09:03:38;;;;;;;10.97;6.00;;;7.50;75.80;;;10.86;56.09;101872.75;5067514;28;20223;-61
2022/01/10 09:06:05;;;;;;;18.37;7.77;;;7.60;75.40;;;10.92;55.82;101870.50;5072754;28;20189;-61
2022/01/10 09:08:36;;;;;;;16.53;6.50;;;7.60;75.10;;;11.00;55.37;101878.50;5070576;28;20220;-61
2022/01/10 09:11:05;;;;;;;16.37;7.63;;;7.70;74.70;;;11.08;55.27;101883.84;5069233;28;20597;-63
2022/01/10 09:13:34;;;;;;;18.00;7.17;;;7.80;74.10;;;11.09;55.52;101888.13;5070741;28;20206;-61
2022/01/10 09:16:02;;;;;;;12.57;7.17;;;7.80;73.80;;;11.10;54.65;101892.44;5071761;28;20189;-61
2022/01/10 09:18:30;;;;;;;11.53;7.20;;;7.80;73.50;;;11.10;54.45;101902.97;5070755;28;20257;-63
2022/01/10 09:20:57;;;;;;;16.77;7.67;;;7.90;73.40;;;11.08;54.26;101905.72;5069708;28;20217;-62
2022/01/10 09:23:26;;;;;;;13.90;7.33;;;7.90;72.80;;;11.03;54.66;101910.63;5072044;28;20213;-59
2022/01/10 09:25:54;;;;;;;14.70;6.27;;;7.80;73.60;;;10.97;54.69;101919.13;5071459;28;20193;-62
2022/01/10 09:28:21;;;;;;;13.27;8.33;;;7.80;72.60;;;10.95;54.82;101917.63;5071453;28;20221;-62
2022/01/10 09:30:51;;;;;;;17.37;8.07;;;7.80;72.60;;;10.99;54.38;101924.25;5070772;28;20197;-62
2022/01/10 09:33:18;;;;;;;13.47;7.50;;;7.80;72.90;;;11.05;54.91;101935.03;5044312;28;20224;-66
2022/01/10 09:36:11;;;;;;;15.63;6.80;;;7.80;73.10;;;11.12;54.19;101943.16;5064339;28;20216;-65
2022/01/10 09:38:40;;;;;;;10.50;6.77;;;7.90;73.20;;;11.27;54.19;101953.03;5041064;28;20628;-68
2022/01/10 09:41:08;;;;;;;15.27;7.60;;;7.90;73.10;;;11.39;53.83;101953.66;5060035;28;20219;-66
2022/01/10 09:43:42;;;;;;;17.70;7.73;;;8.00;72.70;;;11.52;54.05;101948.84;5059557;28;20217;-65
2022/01/10 09:46:22;;;;;;;11.87;6.50;;;8.10;72.60;;;11.63;53.76;101953.03;5080330;28;20209;-66
2022/01/10 09:48:55;;;;;;;20.27;9.23;;;8.20;72.80;;;11.73;53.19;101965.22;5083933;28;20635;-67
2022/01/10 09:51:39;;;;;;;18.30;8.50;;;8.20;71.90;;;11.83;53.24;101967.78;5071318;28;20201;-64
2022/01/10 09:54:08;;;;;;;13.63;7.40;;;8.40;72.00;;;11.89;52.79;101965.34;5082518;28;20217;-67
2022/01/10 09:56:38;;;;;;;15.43;7.33;;;8.40;71.70;;;11.95;52.86;101971.84;5053668;28;20196;-63
2022/01/10 09:59:07;;;;;;;14.37;6.90;;;8.50;71.60;;;11.98;52.74;101982.91;5058140;28;20190;-65
2022/01/10 10:01:36;;;;;;;12.73;7.40;;;8.50;71.00;;;12.08;52.40;101983.63;5053537;28;20201;-69
2022/01/10 10:04:05;;;;;;;17.47;8.77;;;8.60;71.20;;;12.23;52.59;101990.03;5054135;28;20751;-66
2022/01/10 10:06:34;;;;;;;16.00;7.27;;;8.70;71.90;;;12.40;52.34;101987.50;5046993;28;20213;-63
2022/01/10 10:09:06;;;;;;;14.60;7.80;;;8.80;71.30;;;12.51;51.68;101987.22;5053834;28;20217;-64
2022/01/10 10:11:43;;;;;;;13.33;7.33;;;8.90;71.10;;;12.57;52.03;101989.25;5042230;28;20221;-66
2022/01/10 10:14:15;;;;;;;13.63;6.70;;;9.00;70.50;;;12.63;51.79;101985.97;5055996;28;20264;-63
2022/01/10 10:16:52;;;;;;;17.20;7.63;;;9.10;70.10;;;12.66;51.47;101993.59;5059680;28;20220;-65
2022/01/10 10:19:25;;;;;;;10.07;6.67;;;9.20;69.60;;;12.66;51.41;102001.50;5057902;28;20228;-66
2022/01/10 10:21:54;;;;;;;12.97;6.53;;;9.20;69.10;;;12.65;51.41;102002.50;5058733;28;20555;-66
2022/01/10 10:24:24;;;;;;;14.20;7.27;;;9.20;69.30;;;12.73;51.61;102010.47;5059882;28;20220;-64
2022/01/10 10:26:52;;;;;;;12.00;6.53;;;9.30;69.60;;;13.18;51.78;102005.75;5067968;28;20205;-62
2022/01/10 10:29:20;;;;;;;12.33;6.57;;;9.40;70.50;;;13.70;51.37;102010.81;5069975;28;20296;-65
2022/01/10 10:31:52;;;;;;;11.77;6.33;;;9.80;71.20;;;14.15;50.84;102013.81;5070450;28;20201;-63